Time;durP1;ratioP1;P1;durP2;ratioP2;P2;SDS_P1;SDS_P2;PMS_P1;PMS_P2;Temp;Humidity;BMP_temperature;BMP_pressure;BME280_temperature;BME280_humidity;BME280_pressure;Samples;Min_cycle;Max_cycle;Signal;HPM_P1;HPM_P2
2021/04/15 00:00:28;;;;;;;5.13;4.00;;;9.80;99.90;;;;;;5017372;28;20220;-72
2021/04/15 00:02:55;;;;;;;5.50;3.97;;;9.60;99.90;;;;;;5008094;28;20198;-71
2021/04/15 00:05:29;;;;;;;6.27;4.00;;;9.50;99.90;;;;;;5001267;28;20216;-72
2021/04/15 00:07:56;;;;;;;4.77;4.00;;;9.50;99.90;;;;;;5003269;28;20203;-72
2021/04/15 00:10:33;;;;;;;6.03;4.30;;;9.60;99.90;;;;;;4999638;28;20251;-73
2021/04/15 00:13:05;;;;;;;5.10;3.70;;;9.60;99.90;;;;;;4981889;28;20203;-72
2021/04/15 00:15:31;;;;;;;5.20;3.70;;;9.70;99.90;;;;;;5013269;28;20200;-72
2021/04/15 00:17:58;;;;;;;5.33;3.93;;;9.50;99.90;;;;;;4998991;28;20213;-73
2021/04/15 00:20:24;;;;;;;5.10;3.70;;;9.40;99.90;;;;;;5002224;28;20255;-72
2021/04/15 00:22:51;;;;;;;7.33;3.83;;;9.20;99.90;;;;;;5007764;28;20287;-72
2021/04/15 00:25:19;;;;;;;6.23;4.10;;;9.30;99.90;;;;;;5000195;28;20189;-71
2021/04/15 00:27:46;;;;;;;5.03;4.20;;;9.30;99.90;;;;;;5003198;28;20188;-71
2021/04/15 00:30:16;;;;;;;4.33;3.93;;;9.30;99.90;;;;;;5003161;28;20728;-72
2021/04/15 00:32:43;;;;;;;6.10;4.17;;;9.30;99.90;;;;;;4985943;28;20264;-73
2021/04/15 00:35:11;;;;;;;4.70;3.63;;;9.40;99.90;;;;;;5004684;28;20192;-72
2021/04/15 00:37:37;;;;;;;5.70;4.10;;;9.30;99.90;;;;;;5019003;28;20270;-72
2021/04/15 00:40:06;;;;;;;5.47;4.10;;;9.20;99.90;;;;;;4985533;28;20181;-72
2021/04/15 00:42:36;;;;;;;6.87;3.80;;;9.20;99.90;;;;;;5023502;28;20797;-71
2021/04/15 00:45:25;;;;;;;5.10;4.23;;;9.30;99.90;;;;;;5002205;28;20558;-72
2021/04/15 00:48:06;;;;;;;6.53;4.53;;;9.30;99.90;;;;;;5016077;28;20538;-72
2021/04/15 00:50:42;;;;;;;5.10;4.20;;;9.30;99.90;;;;;;4997146;28;20248;-72
2021/04/15 00:53:20;;;;;;;5.27;4.20;;;9.30;99.90;;;;;;4997539;28;20207;-72
2021/04/15 00:55:48;;;;;;;4.63;3.93;;;9.30;99.90;;;;;;5015470;28;20677;-71
2021/04/15 00:58:16;;;;;;;4.67;4.23;;;9.20;99.90;;;;;;4986758;28;20203;-71
2021/04/15 01:00:43;;;;;;;8.30;4.20;;;9.20;99.90;;;;;;5002543;28;20658;-72
2021/04/15 01:03:10;;;;;;;4.23;3.83;;;9.20;99.90;;;;;;4987834;28;20616;-72
2021/04/15 01:05:40;;;;;;;7.23;4.17;;;9.30;99.90;;;;;;5001197;28;20184;-72
2021/04/15 01:08:07;;;;;;;6.63;4.37;;;9.20;99.90;;;;;;4996763;28;20209;-72
2021/04/15 01:10:40;;;;;;;5.73;4.30;;;9.20;99.90;;;;;;5000711;28;20441;-72
2021/04/15 01:13:52;;;;;;;5.90;3.43;;;9.10;99.90;;;;;;4999208;28;20623;-73
2021/04/15 01:17:00;;;;;;;6.27;3.93;;;9.10;99.90;;;;;;5002362;28;20224;-72
2021/04/15 01:20:09;;;;;;;5.23;4.07;;;9.10;99.90;;;;;;5002109;28;20197;-73
2021/04/15 01:23:12;;;;;;;4.80;4.07;;;9.10;99.90;;;;;;4997513;28;20256;-73
2021/04/15 01:25:50;;;;;;;6.90;4.20;;;9.10;99.90;;;;;;5004559;28;20304;-72
2021/04/15 01:28:50;;;;;;;4.97;3.87;;;9.10;99.90;;;;;;5000436;28;20197;-72
2021/04/15 01:31:44;;;;;;;6.43;4.23;;;9.10;99.90;;;;;;4998677;28;20186;-72
2021/04/15 01:34:24;;;;;;;5.40;3.43;;;9.10;99.90;;;;;;4980926;28;20690;-72
2021/04/15 01:37:15;;;;;;;3.83;3.27;;;9.00;99.90;;;;;;4986036;28;21314;-73
2021/04/15 01:39:50;;;;;;;6.40;3.70;;;9.00;99.90;;;;;;5023617;28;20224;-73
2021/04/15 01:42:32;;;;;;;6.37;3.57;;;9.40;99.90;;;;;;5016833;28;20681;-72
2021/04/15 01:45:07;;;;;;;7.73;3.70;;;9.10;99.90;;;;;;5015500;28;20275;-72
2021/04/15 01:47:48;;;;;;;4.87;3.83;;;9.00;99.90;;;;;;5001687;28;20613;-72
2021/04/15 01:50:25;;;;;;;3.73;3.37;;;8.50;99.90;;;;;;5004957;28;20267;-72
2021/04/15 01:52:59;;;;;;;5.13;3.77;;;9.10;99.90;;;;;;5006900;28;20228;-72
2021/04/15 01:55:38;;;;;;;4.07;3.67;;;9.00;99.90;;;;;;5003898;28;20196;-72
2021/04/15 01:58:16;;;;;;;3.80;3.40;;;9.00;99.90;;;;;;5009889;28;20185;-72
2021/04/15 02:00:47;;;;;;;5.27;3.80;;;8.80;99.90;;;;;;5003989;28;20242;-72
2021/04/15 02:03:27;;;;;;;4.00;3.50;;;8.70;99.90;;;;;;5012467;28;20205;-72
2021/04/15 02:06:10;;;;;;;5.17;3.70;;;8.80;99.90;;;;;;5003106;28;20199;-72
2021/04/15 02:08:45;;;;;;;6.33;3.70;;;8.70;99.90;;;;;;5001249;28;20189;-72
2021/04/15 02:11:33;;;;;;;5.33;3.93;;;8.70;99.90;;;;;;5005917;28;20214;-72
2021/04/15 02:14:02;;;;;;;4.70;3.63;;;8.70;99.90;;;;;;4999637;28;20607;-72
2021/04/15 02:16:36;;;;;;;5.43;4.03;;;8.80;99.90;;;;;;4985980;28;20804;-70
2021/04/15 02:19:43;;;;;;;4.60;3.80;;;8.80;99.90;;;;;;4997172;28;20192;-72
2021/04/15 02:22:15;;;;;;;7.30;3.90;;;8.90;99.90;;;;;;4998828;28;20304;-71
2021/04/15 02:25:22;;;;;;;6.07;4.03;;;8.80;99.90;;;;;;4997266;28;20808;-71
2021/04/15 02:28:17;;;;;;;5.43;3.63;;;8.90;99.90;;;;;;4951625;28;20551;-73
2021/04/15 02:31:21;;;;;;;6.40;3.77;;;8.90;99.90;;;;;;4991310;28;20238;-72
2021/04/15 02:33:53;;;;;;;4.40;3.57;;;9.00;99.90;;;;;;5005027;28;20192;-72
2021/04/15 02:36:25;;;;;;;4.17;3.23;;;9.10;99.90;;;;;;5014403;28;20212;-72
2021/04/15 02:39:04;;;;;;;4.20;3.40;;;9.10;99.90;;;;;;5000660;28;20195;-72
2021/04/15 02:41:33;;;;;;;6.43;3.63;;;9.10;99.90;;;;;;5000987;28;20560;-72
2021/04/15 02:44:22;;;;;;;4.20;3.00;;;9.10;99.90;;;;;;4988358;28;20180;-72
2021/04/15 02:47:03;;;;;;;5.67;4.17;;;9.00;99.90;;;;;;5001371;28;20592;-72
2021/04/15 02:49:33;;;;;;;5.13;3.53;;;9.00;99.90;;;;;;5005398;28;20702;-71
2021/04/15 02:52:22;;;;;;;6.73;3.60;;;9.00;99.90;;;;;;5006230;28;20201;-72
2021/04/15 02:54:55;;;;;;;4.73;3.00;;;8.90;99.90;;;;;;5001639;28;20194;-72
2021/04/15 02:57:40;;;;;;;4.13;3.20;;;8.90;99.90;;;;;;4999068;28;20701;-71
2021/04/15 03:00:19;;;;;;;4.53;3.43;;;8.80;99.90;;;;;;5003949;28;20945;-72
2021/04/15 03:03:12;;;;;;;7.73;3.67;;;8.80;99.90;;;;;;5005034;28;20208;-72
2021/04/15 03:05:49;;;;;;;4.23;3.13;;;8.60;99.90;;;;;;5019174;28;20640;-71
2021/04/15 03:08:23;;;;;;;3.67;3.23;;;8.60;99.90;;;;;;4998316;28;20204;-71
2021/04/15 03:10:57;;;;;;;4.53;4.13;;;8.60;99.90;;;;;;5006913;28;20250;-71
2021/04/15 03:13:37;;;;;;;3.73;3.43;;;8.60;99.90;;;;;;5003936;28;20193;-71
2021/04/15 03:16:06;;;;;;;5.07;3.90;;;8.50;99.90;;;;;;5014615;28;20228;-72
2021/04/15 03:19:03;;;;;;;8.97;4.10;;;8.60;99.90;;;;;;4996042;28;20578;-72
2021/04/15 03:21:58;;;;;;;4.90;3.47;;;8.70;99.90;;;;;;4976977;28;20225;-71
2021/04/15 03:24:44;;;;;;;5.57;4.03;;;8.70;99.90;;;;;;4974059;28;20229;-71
2021/04/15 03:27:14;;;;;;;6.53;3.67;;;8.70;99.90;;;;;;5000302;28;20288;-73
2021/04/15 03:29:49;;;;;;;6.17;3.70;;;8.70;99.90;;;;;;5011211;28;20192;-72
2021/04/15 03:32:34;;;;;;;6.47;3.73;;;8.70;99.90;;;;;;5000399;28;21225;-71
2021/04/15 03:35:12;;;;;;;5.17;3.77;;;8.80;99.90;;;;;;4998378;28;20192;-71
2021/04/15 03:38:23;;;;;;;5.37;3.70;;;8.80;99.90;;;;;;4998910;28;20717;-71
2021/04/15 03:40:59;;;;;;;6.63;4.03;;;8.80;99.90;;;;;;4932324;29;20577;-71
2021/04/15 03:43:37;;;;;;;5.13;3.97;;;8.70;99.90;;;;;;4991261;28;20193;-72
2021/04/15 03:46:35;;;;;;;5.27;4.17;;;8.70;99.90;;;;;;5013394;28;20256;-71
2021/04/15 03:49:46;;;;;;;5.93;4.03;;;8.70;99.90;;;;;;5003070;28;20200;-71
2021/04/15 03:52:27;;;;;;;5.70;4.23;;;8.80;99.90;;;;;;4993914;28;20573;-71
2021/04/15 03:55:32;;;;;;;6.87;4.20;;;8.90;99.90;;;;;;4993488;28;20196;-72
2021/04/15 03:58:36;;;;;;;4.57;3.83;;;8.90;99.90;;;;;;4986857;28;20192;-71
2021/04/15 04:01:18;;;;;;;8.30;4.10;;;8.90;99.90;;;;;;4989304;28;20228;-71
2021/04/15 04:04:13;;;;;;;4.67;3.53;;;8.90;99.90;;;;;;5002517;28;20193;-71
2021/04/15 04:06:43;;;;;;;6.60;4.10;;;8.90;99.90;;;;;;4990744;28;20201;-72
2021/04/15 04:09:38;;;;;;;4.87;3.80;;;9.10;99.90;;;;;;5023630;28;20208;-72
2021/04/15 04:12:16;;;;;;;6.93;3.80;;;9.30;99.90;;;;;;4984466;28;20197;-71
2021/04/15 04:15:13;;;;;;;6.23;3.37;;;9.50;99.90;;;;;;5005628;28;20192;-72
2021/04/15 04:18:02;;;;;;;4.60;3.50;;;9.70;99.90;;;;;;4997179;28;20202;-71
2021/04/15 04:20:42;;;;;;;4.87;3.70;;;9.70;99.90;;;;;;4986403;28;20300;-72
2021/04/15 04:23:29;;;;;;;4.93;3.27;;;9.90;99.90;;;;;;5003737;28;20196;-72
2021/04/15 04:26:09;;;;;;;4.07;3.17;;;10.10;99.90;;;;;;4984680;28;20185;-72
2021/04/15 04:29:28;;;;;;;3.30;3.00;;;10.40;99.90;;;;;;4999216;28;20658;-72
2021/04/15 04:31:59;;;;;;;4.93;3.10;;;10.60;99.90;;;;;;4943614;28;20204;-72
2021/04/15 04:34:28;;;;;;;4.57;3.30;;;10.80;99.90;;;;;;5012512;28;20185;-72
2021/04/15 04:36:56;;;;;;;4.50;3.03;;;10.80;99.90;;;;;;5005355;28;20289;-73
2021/04/15 04:39:27;;;;;;;4.57;3.53;;;10.70;99.90;;;;;;5003490;28;21257;-72
2021/04/15 04:42:09;;;;;;;5.30;3.27;;;10.70;99.90;;;;;;5006414;28;20324;-71
2021/04/15 04:44:57;;;;;;;4.37;3.40;;;10.80;99.90;;;;;;4986547;28;21125;-72
2021/04/15 04:47:53;;;;;;;5.03;3.00;;;10.90;99.90;;;;;;5001795;28;20193;-73
2021/04/15 04:50:43;;;;;;;4.47;3.37;;;11.00;99.90;;;;;;5002838;28;20276;-72
2021/04/15 04:53:26;;;;;;;4.43;3.27;;;11.10;99.90;;;;;;5008267;28;20198;-72
2021/04/15 04:56:34;;;;;;;3.70;3.20;;;11.30;99.90;;;;;;5013492;28;20235;-71
2021/04/15 04:59:13;;;;;;;3.93;2.77;;;11.40;99.90;;;;;;4997477;28;20336;-72
2021/04/15 05:01:41;;;;;;;4.23;2.83;;;11.60;99.90;;;;;;5003888;28;20216;-72
2021/04/15 05:04:09;;;;;;;3.37;2.47;;;11.80;99.90;;;;;;4989099;28;20189;-72
2021/04/15 05:06:43;;;;;;;3.57;2.60;;;11.90;99.90;;;;;;5001677;28;20263;-72
2021/04/15 05:09:23;;;;;;;4.00;2.83;;;11.80;99.90;;;;;;5004511;28;20210;-72
2021/04/15 05:11:52;;;;;;;3.40;2.93;;;11.80;99.90;;;;;;5003356;28;20192;-72
2021/04/15 05:14:24;;;;;;;4.27;3.03;;;11.70;99.90;;;;;;4999737;28;20594;-69
2021/04/15 05:17:22;;;;;;;3.10;2.80;;;11.80;99.90;;;;;;5002024;28;20310;-72
2021/04/15 05:19:53;;;;;;;4.67;3.20;;;11.80;99.90;;;;;;5000865;28;20197;-72
2021/04/15 05:22:42;;;;;;;3.37;2.70;;;11.90;99.90;;;;;;4982653;28;20233;-69
2021/04/15 05:25:24;;;;;;;3.17;2.73;;;12.00;99.90;;;;;;5005608;28;20200;-69
2021/04/15 05:27:52;;;;;;;5.13;2.87;;;12.10;99.90;;;;;;5003291;28;20212;-69
2021/04/15 05:30:46;;;;;;;3.20;2.90;;;12.20;99.90;;;;;;4982531;28;20209;-70
2021/04/15 05:33:24;;;;;;;3.60;2.73;;;12.40;99.90;;;;;;5016929;28;20205;-70
2021/04/15 05:36:28;;;;;;;4.27;3.13;;;12.40;99.90;;;;;;5017285;28;20678;-70
2021/04/15 05:38:59;;;;;;;3.40;2.73;;;12.50;99.90;;;;;;4998598;28;20566;-71
2021/04/15 05:41:46;;;;;;;3.27;2.67;;;12.50;99.90;;;;;;5005247;28;20224;-70
2021/04/15 05:44:37;;;;;;;5.20;3.23;;;12.50;99.90;;;;;;5008229;28;20185;-70
2021/04/15 05:47:22;;;;;;;3.10;2.80;;;12.60;99.90;;;;;;5002424;28;20197;-69
2021/04/15 05:50:15;;;;;;;3.40;3.10;;;12.60;99.90;;;;;;5002868;28;20188;-70
2021/04/15 05:52:54;;;;;;;3.43;3.00;;;12.70;99.90;;;;;;4983848;28;20251;-72
2021/04/15 05:55:30;;;;;;;5.63;3.37;;;12.80;99.90;;;;;;5013169;28;20192;-70
2021/04/15 05:58:07;;;;;;;3.23;2.93;;;12.90;99.90;;;;;;4988861;28;20196;-72
2021/04/15 06:01:07;;;;;;;4.13;2.90;;;13.00;99.90;;;;;;5016345;28;20283;-70
2021/04/15 06:03:59;;;;;;;3.40;2.97;;;13.10;99.90;;;;;;4998979;28;20658;-73
2021/04/15 06:06:34;;;;;;;5.93;2.93;;;13.10;99.90;;;;;;5001413;28;20671;-72
2021/04/15 06:09:02;;;;;;;5.03;2.93;;;13.20;99.90;;;;;;5004781;28;20211;-71
2021/04/15 06:11:56;;;;;;;9.43;3.40;;;13.20;99.90;;;;;;5001247;28;20330;-72
2021/04/15 06:14:47;;;;;;;4.53;2.57;;;13.30;99.90;;;;;;5002885;28;20194;-72
2021/04/15 06:17:56;;;;;;;3.47;2.60;;;13.40;99.90;;;;;;4999482;28;20267;-72
2021/04/15 06:20:45;;;;;;;5.00;2.90;;;13.40;99.90;;;;;;4966105;28;20685;-71
2021/04/15 06:23:46;;;;;;;4.37;2.60;;;13.50;99.90;;;;;;5000807;28;20205;-71
2021/04/15 06:26:54;;;;;;;3.80;2.80;;;13.80;99.90;;;;;;4987354;28;20204;-72
2021/04/15 06:29:33;;;;;;;3.47;2.97;;;14.10;99.90;;;;;;5001267;28;20249;-72
2021/04/15 06:32:04;;;;;;;3.60;2.70;;;14.30;99.90;;;;;;4996044;28;20189;-72
2021/04/15 06:34:33;;;;;;;4.70;2.50;;;14.30;99.90;;;;;;5002873;28;20247;-72
2021/04/15 06:37:28;;;;;;;3.10;2.30;;;14.50;99.90;;;;;;4995365;28;20693;-72
2021/04/15 06:40:20;;;;;;;4.40;2.23;;;14.60;99.90;;;;;;4987118;28;20237;-71
2021/04/15 06:43:17;;;;;;;5.97;2.70;;;14.50;99.90;;;;;;5002477;28;20225;-72
2021/04/15 06:46:06;;;;;;;3.27;2.97;;;14.80;99.90;;;;;;4999629;28;20195;-72
2021/04/15 06:49:15;;;;;;;3.47;2.70;;;15.00;99.90;;;;;;4996956;28;20193;-72
2021/04/15 06:52:22;;;;;;;3.90;2.70;;;15.10;99.90;;;;;;5001564;28;20189;-71
2021/04/15 06:55:32;;;;;;;3.33;2.20;;;15.20;99.90;;;;;;5003245;28;20592;-71
2021/04/15 06:58:52;;;;;;;2.73;2.33;;;15.40;99.90;;;;;;4999690;28;20197;-70
2021/04/15 07:01:52;;;;;;;4.00;2.00;;;15.50;99.90;;;;;;4982609;28;20255;-70
2021/04/15 07:04:45;;;;;;;5.73;2.13;;;15.60;99.90;;;;;;5001606;28;20189;-71
2021/04/15 07:07:34;;;;;;;5.87;1.87;;;15.50;99.90;;;;;;5002453;28;20193;-71
2021/04/15 07:10:49;;;;;;;2.67;2.00;;;15.50;99.90;;;;;;5001163;28;20196;-71
2021/04/15 07:13:52;;;;;;;4.00;2.13;;;15.90;99.90;;;;;;4983104;28;20247;-70
2021/04/15 07:17:01;;;;;;;5.27;1.93;;;15.80;99.90;;;;;;5003277;28;20506;-72
2021/04/15 07:20:11;;;;;;;2.23;1.67;;;16.10;99.90;;;;;;5013816;28;20274;-71
2021/04/15 07:23:26;;;;;;;2.33;1.50;;;16.20;99.90;;;;;;4998904;28;20220;-70
2021/04/15 07:26:40;;;;;;;2.33;1.80;;;16.20;99.90;;;;;;4994829;28;20197;-71
2021/04/15 07:29:24;;;;;;;6.43;1.97;;;16.50;99.90;;;;;;4999894;28;20685;-71
2021/04/15 07:32:43;;;;;;;2.17;1.73;;;16.30;99.90;;;;;;4985466;28;20228;-71
2021/04/15 07:35:38;;;;;;;2.83;1.50;;;16.70;99.90;;;;;;5007243;28;20648;-71
2021/04/15 07:38:33;;;;;;;2.27;1.60;;;17.10;99.90;;;;;;5004085;28;20364;-70
2021/04/15 07:41:18;;;;;;;2.73;1.90;;;17.20;99.90;;;;;;5002001;28;20240;-71
2021/04/15 07:44:06;;;;;;;3.50;1.73;;;17.30;99.90;;;;;;5001312;28;20200;-71
2021/04/15 07:46:59;;;;;;;5.60;1.73;;;17.40;99.90;;;;;;5015313;28;20205;-70
2021/04/15 07:49:56;;;;;;;2.13;1.30;;;17.70;99.90;;;;;;4999531;28;20177;-71
2021/04/15 07:52:53;;;;;;;2.63;1.43;;;17.80;99.90;;;;;;5001365;28;20185;-71
2021/04/15 07:55:48;;;;;;;3.90;1.60;;;18.10;99.90;;;;;;4998373;28;20622;-70
2021/04/15 07:58:25;;;;;;;2.80;2.00;;;18.30;99.90;;;;;;5002377;28;20250;-71
2021/04/15 08:01:17;;;;;;;5.00;2.40;;;18.30;99.90;;;;;;4998781;28;20810;-71
2021/04/15 08:03:55;;;;;;;3.60;2.53;;;18.40;99.90;;;;;;4985694;28;20197;-71
2021/04/15 08:06:50;;;;;;;4.93;2.30;;;18.50;99.90;;;;;;4984133;28;20617;-71
2021/04/15 08:09:31;;;;;;;4.83;2.37;;;18.60;99.90;;;;;;5000351;28;20295;-71
2021/04/15 08:12:48;;;;;;;3.10;2.80;;;18.70;99.90;;;;;;4982269;28;20184;-71
2021/04/15 08:15:39;;;;;;;4.30;2.63;;;18.50;99.90;;;;;;5001340;28;20201;-71
2021/04/15 08:18:29;;;;;;;5.20;3.10;;;18.60;99.90;;;;;;5001776;28;20681;-71
2021/04/15 08:21:57;;;;;;;5.87;2.80;;;18.60;99.90;;;;;;5002074;28;20259;-71
2021/04/15 08:24:55;;;;;;;7.93;2.90;;;18.60;99.90;;;;;;4987650;28;20754;-71
2021/04/15 08:28:01;;;;;;;7.23;3.10;;;18.50;99.90;;;;;;5001625;28;20200;-71
2021/04/15 08:30:51;;;;;;;5.63;2.57;;;18.50;99.90;;;;;;5003179;28;20209;-70
2021/04/15 08:33:27;;;;;;;5.30;2.70;;;18.60;99.90;;;;;;5004983;28;20275;-72
2021/04/15 08:36:33;;;;;;;3.57;2.33;;;18.60;99.90;;;;;;4999575;28;20630;-72
2021/04/15 08:39:32;;;;;;;5.13;2.83;;;18.60;99.90;;;;;;5001543;28;20193;-71
2021/04/15 08:42:33;;;;;;;4.40;2.93;;;18.80;99.90;;;;;;5002776;28;20789;-70
2021/04/15 08:45:19;;;;;;;8.07;3.37;;;18.70;99.90;;;;;;5006402;28;20263;-71
2021/04/15 08:48:04;;;;;;;4.53;3.10;;;18.90;99.90;;;;;;5001922;28;20264;-71
2021/04/15 08:51:15;;;;;;;8.37;3.20;;;18.90;99.90;;;;;;4982380;28;20215;-71
2021/04/15 08:54:19;;;;;;;4.57;3.30;;;18.90;99.90;;;;;;4988426;28;20235;-71
2021/04/15 08:57:02;;;;;;;5.07;3.40;;;18.90;99.90;;;;;;4999362;28;20270;-71
2021/04/15 08:59:57;;;;;;;5.17;3.10;;;19.00;99.90;;;;;;5018590;28;20276;-71
2021/04/15 09:02:49;;;;;;;5.87;3.30;;;19.10;99.90;;;;;;5001375;28;20219;-72
2021/04/15 09:06:17;;;;;;;5.70;3.37;;;19.10;99.90;;;;;;5010609;28;20724;-72
2021/04/15 09:09:05;;;;;;;6.30;3.53;;;19.10;99.90;;;;;;4927173;29;20230;-70
2021/04/15 09:12:04;;;;;;;6.23;3.20;;;19.20;99.90;;;;;;4942029;29;20195;-71
2021/04/15 09:14:55;;;;;;;7.10;3.20;;;19.30;99.90;;;;;;5012427;28;20263;-70
2021/04/15 09:17:45;;;;;;;5.70;3.70;;;19.20;99.90;;;;;;5001809;28;20804;-70
2021/04/15 09:20:42;;;;;;;3.73;3.30;;;19.30;99.90;;;;;;5000209;28;20208;-70
2021/04/15 09:23:18;;;;;;;5.50;3.67;;;19.40;99.90;;;;;;5004187;28;20666;-70
2021/04/15 09:25:50;;;;;;;5.63;3.60;;;19.50;99.90;;;;;;5000594;28;20223;-71
2021/04/15 09:29:00;;;;;;;4.50;3.50;;;19.50;99.90;;;;;;4996645;28;20216;-71
2021/04/15 09:32:02;;;;;;;5.73;3.53;;;19.70;99.90;;;;;;4989601;28;20311;-71
2021/04/15 09:35:45;;;;;;;4.77;3.30;;;19.60;99.90;;;;;;4983370;28;20208;-70
2021/04/15 09:38:31;;;;;;;4.00;3.50;;;19.60;99.90;;;;;;5012641;28;20267;-70
2021/04/15 09:41:32;;;;;;;6.57;3.70;;;19.70;99.90;;;;;;4997595;28;20776;-70
2021/04/15 09:44:35;;;;;;;4.97;3.73;;;19.80;99.90;;;;;;4978113;28;20193;-70
2021/04/15 09:47:51;;;;;;;5.43;3.30;;;19.90;99.90;;;;;;5000422;28;20653;-71
2021/04/15 09:50:53;;;;;;;5.20;3.27;;;20.10;99.90;;;;;;5003232;28;20246;-70
2021/04/15 09:53:56;;;;;;;6.10;3.63;;;20.20;99.90;;;;;;5000853;28;21549;-70
2021/04/15 09:57:04;;;;;;;8.47;3.20;;;20.30;99.90;;;;;;5000944;28;20231;-70
2021/04/15 09:59:49;;;;;;;5.37;3.77;;;20.30;99.90;;;;;;4988464;28;20213;-70
2021/04/15 10:02:42;;;;;;;7.80;3.53;;;20.40;99.90;;;;;;4998243;28;20218;-70
2021/04/15 10:05:35;;;;;;;5.33;3.33;;;20.50;99.90;;;;;;4982377;28;20609;-70
2021/04/15 10:08:27;;;;;;;4.47;3.57;;;20.40;99.90;;;;;;5014855;28;20706;-70
2021/04/15 10:11:55;;;;;;;4.97;3.27;;;20.60;99.90;;;;;;4997633;28;20728;-70
2021/04/15 10:14:53;;;;;;;7.50;3.30;;;20.90;99.90;;;;;;5004156;28;20374;-69
2021/04/15 10:17:22;;;;;;;3.93;3.47;;;20.90;99.90;;;;;;4981262;28;20227;-70
2021/04/15 10:20:14;;;;;;;5.97;3.63;;;21.10;99.90;;;;;;4998797;28;20209;-70
2021/04/15 10:23:24;;;;;;;4.57;2.97;;;21.40;99.90;;;;;;5013647;28;20225;-70
2021/04/15 10:26:18;;;;;;;5.70;3.50;;;21.50;99.90;;;;;;5004025;28;20192;-70
2021/04/15 10:29:02;;;;;;;5.93;3.77;;;21.80;99.90;;;;;;4998378;28;20259;-70
2021/04/15 10:31:59;;;;;;;4.83;3.37;;;21.90;99.90;;;;;;4981298;28;20185;-70
2021/04/15 10:35:13;;;;;;;5.87;3.40;;;22.10;99.90;;;;;;4999867;28;20192;-70
2021/04/15 10:38:15;;;;;;;6.30;3.57;;;21.90;99.90;;;;;;4972177;28;20199;-71
2021/04/15 10:41:22;;;;;;;7.87;3.10;;;21.90;99.90;;;;;;5000532;28;20216;-71
2021/04/15 10:43:54;;;;;;;4.43;3.50;;;22.10;99.90;;;;;;4993968;28;20201;-70
2021/04/15 10:46:35;;;;;;;6.27;3.30;;;22.00;99.90;;;;;;5000696;28;20307;-70
2021/04/15 10:49:33;;;;;;;4.57;3.37;;;21.90;99.90;;;;;;4994602;28;20209;-70
2021/04/15 10:52:59;;;;;;;4.87;3.20;;;21.70;99.90;;;;;;5009886;28;20276;-70
2021/04/15 10:55:34;;;;;;;8.57;3.57;;;21.60;99.90;;;;;;4942537;28;20227;-71
2021/04/15 10:58:29;;;;;;;4.60;3.13;;;21.40;99.90;;;;;;4997379;28;20516;-71
2021/04/15 11:00:57;;;;;;;8.60;3.40;;;21.30;99.90;;;;;;4978324;28;20292;-70
2021/04/15 11:03:34;;;;;;;4.07;3.40;;;21.30;99.90;;;;;;5003059;28;20660;-70
2021/04/15 11:06:01;;;;;;;5.60;3.77;;;21.40;99.90;;;;;;4977933;28;20594;-70
2021/04/15 11:08:31;;;;;;;5.00;3.47;;;21.20;99.90;;;;;;4999264;28;20196;-70
2021/04/15 11:11:24;;;;;;;8.90;3.67;;;21.20;99.90;;;;;;4999120;28;20189;-71
2021/04/15 11:14:05;;;;;;;4.37;3.30;;;21.10;99.90;;;;;;5003570;28;20185;-70
2021/04/15 11:16:34;;;;;;;6.10;3.43;;;21.10;99.90;;;;;;4997659;28;20216;-71
2021/04/15 11:19:12;;;;;;;4.60;3.47;;;21.10;99.90;;;;;;5001258;28;20208;-71
2021/04/15 11:21:40;;;;;;;8.07;3.73;;;21.00;99.90;;;;;;4999498;28;20224;-71
2021/04/15 11:24:27;;;;;;;5.97;3.27;;;21.00;99.90;;;;;;5002208;28;20194;-70
2021/04/15 11:26:59;;;;;;;5.63;3.57;;;20.90;99.90;;;;;;4998416;28;20200;-70
2021/04/15 11:29:49;;;;;;;7.47;3.40;;;20.90;99.90;;;;;;5001455;28;20863;-70
2021/04/15 11:32:50;;;;;;;9.47;4.10;;;21.00;99.90;;;;;;5002375;28;20653;-70
2021/04/15 11:35:22;;;;;;;5.33;3.50;;;20.90;99.90;;;;;;4997784;28;20616;-70
2021/04/15 11:38:05;;;;;;;5.70;3.50;;;21.00;99.90;;;;;;5008802;28;20193;-70
2021/04/15 11:40:52;;;;;;;3.93;3.47;;;21.00;99.90;;;;;;5016640;28;20197;-70
2021/04/15 11:43:33;;;;;;;5.50;3.57;;;21.00;99.90;;;;;;5001654;28;20269;-70
2021/04/15 11:46:34;;;;;;;6.63;3.30;;;20.90;99.90;;;;;;4995162;28;20694;-70
2021/04/15 11:49:17;;;;;;;7.43;3.60;;;20.90;99.90;;;;;;4979517;28;20855;-70
2021/04/15 11:52:21;;;;;;;6.63;3.43;;;20.90;99.90;;;;;;4999090;28;20193;-70
2021/04/15 11:54:54;;;;;;;4.23;3.13;;;20.90;99.90;;;;;;5001981;28;20267;-71
2021/04/15 11:57:24;;;;;;;5.17;3.27;;;20.90;99.90;;;;;;5003291;28;20197;-70
2021/04/15 11:59:56;;;;;;;4.13;2.80;;;20.90;99.90;;;;;;4996642;28;20676;-70
2021/04/15 12:02:46;;;;;;;4.40;3.17;;;20.80;99.90;;;;;;4997902;28;20654;-70
2021/04/15 12:05:29;;;;;;;4.13;3.10;;;20.80;99.90;;;;;;5000757;28;20190;-70
2021/04/15 12:08:08;;;;;;;5.30;3.17;;;20.80;99.90;;;;;;4999520;28;20212;-70
2021/04/15 12:10:44;;;;;;;5.73;3.13;;;20.70;99.90;;;;;;4991497;28;20189;-71
2021/04/15 12:13:26;;;;;;;3.70;3.20;;;20.60;99.90;;;;;;5000445;28;20204;-70
2021/04/15 12:16:05;;;;;;;4.73;3.10;;;20.60;99.90;;;;;;5000586;28;20247;-70
2021/04/15 12:18:45;;;;;;;6.30;3.33;;;20.60;99.90;;;;;;4999501;28;20201;-70
2021/04/15 12:21:46;;;;;;;5.47;3.27;;;20.50;99.90;;;;;;4997848;28;20216;-71
2021/04/15 12:24:32;;;;;;;4.23;3.20;;;20.40;99.90;;;;;;5003164;28;20192;-71
2021/04/15 12:27:27;;;;;;;6.47;3.50;;;20.50;99.90;;;;;;5002616;28;20292;-70
2021/04/15 12:30:31;;;;;;;5.00;3.60;;;20.50;99.90;;;;;;5000813;28;20208;-70
2021/04/15 12:33:09;;;;;;;4.77;3.10;;;20.40;99.90;;;;;;5006921;28;20649;-70
2021/04/15 12:39:24;;;;;;;4.23;3.23;;;20.40;99.90;;;;;;4999422;28;20215;-71
2021/04/15 12:41:53;;;;;;;5.27;3.40;;;20.20;99.90;;;;;;4986200;28;20209;-70
2021/04/15 12:44:32;;;;;;;7.10;3.27;;;20.20;99.90;;;;;;4982756;28;20224;-71
2021/04/15 12:47:01;;;;;;;6.43;3.13;;;20.10;99.90;;;;;;4994839;28;20199;-70
2021/04/15 12:49:35;;;;;;;6.27;3.40;;;20.40;99.90;;;;;;4998774;28;20200;-71
2021/04/15 12:52:12;;;;;;;3.93;3.03;;;20.40;99.90;;;;;;4999778;28;20196;-70
2021/04/15 12:54:41;;;;;;;5.00;3.00;;;20.30;99.90;;;;;;4994727;28;20211;-70
2021/04/15 12:57:13;;;;;;;5.23;3.30;;;20.40;99.90;;;;;;4982033;28;20395;-70
2021/04/15 12:59:49;;;;;;;4.60;3.27;;;20.40;99.90;;;;;;4984932;28;20541;-70
2021/04/15 13:02:33;;;;;;;4.40;3.23;;;20.30;99.90;;;;;;4997857;28;20235;-72
2021/04/15 13:05:11;;;;;;;5.40;3.23;;;20.30;99.90;;;;;;4976944;28;20336;-70
2021/04/15 13:07:42;;;;;;;3.23;2.87;;;20.10;99.90;;;;;;4974641;28;20246;-72
2021/04/15 13:10:15;;;;;;;6.33;3.30;;;20.20;99.90;;;;;;4995242;28;20205;-70
2021/04/15 13:12:47;;;;;;;5.33;3.20;;;20.20;99.90;;;;;;5001284;28;20188;-70
2021/04/15 13:15:38;;;;;;;6.17;3.50;;;20.20;99.90;;;;;;5006530;28;20654;-71
2021/04/15 13:18:09;;;;;;;5.83;3.67;;;20.00;99.90;;;;;;4995577;28;20341;-71
2021/04/15 13:20:41;;;;;;;6.47;3.70;;;19.90;99.90;;;;;;5001413;28;20292;-70
2021/04/15 13:23:08;;;;;;;5.93;3.73;;;20.00;99.90;;;;;;5005318;28;20709;-71
2021/04/15 13:25:36;;;;;;;8.53;3.10;;;20.00;99.90;;;;;;5003161;28;20192;-71
2021/04/15 13:28:09;;;;;;;6.10;3.13;;;20.00;99.90;;;;;;4979821;28;20520;-71
2021/04/15 13:30:41;;;;;;;6.20;3.30;;;20.00;99.90;;;;;;4998037;28;20196;-71
2021/04/15 13:34:07;;;;;;;4.87;3.60;;;20.00;99.90;;;;;;4995788;28;20520;-72
2021/04/15 13:36:34;;;;;;;5.23;3.60;;;19.90;99.90;;;;;;4998019;28;20194;-72
2021/04/15 13:39:27;;;;;;;10.77;4.80;;;20.00;99.90;;;;;;4985436;28;20262;-71
2021/04/15 13:41:54;;;;;;;6.73;3.50;;;19.90;99.90;;;;;;5002864;28;20217;-71
2021/04/15 13:45:00;;;;;;;4.90;3.50;;;19.80;99.90;;;;;;5006927;28;20193;-71
2021/04/15 13:47:45;;;;;;;4.57;3.20;;;19.70;99.90;;;;;;4999916;28;20311;-71
2021/04/15 13:50:14;;;;;;;16.83;6.10;;;19.80;99.90;;;;;;5002759;28;20223;-72
2021/04/15 13:52:41;;;;;;;5.40;3.43;;;19.70;99.90;;;;;;4998372;28;20193;-72
2021/04/15 13:55:29;;;;;;;5.43;3.70;;;19.80;99.90;;;;;;5018744;28;20196;-72
2021/04/15 13:57:57;;;;;;;5.40;3.30;;;19.70;99.90;;;;;;4999729;28;20181;-71
2021/04/15 14:00:47;;;;;;;7.07;3.30;;;19.70;99.90;;;;;;4984266;28;20198;-71
2021/04/15 14:03:38;;;;;;;6.53;3.40;;;19.70;99.90;;;;;;4985198;28;20197;-72
2021/04/15 14:06:21;;;;;;;5.17;3.30;;;19.60;99.90;;;;;;4999566;28;20193;-71
2021/04/15 14:09:18;;;;;;;4.87;2.97;;;19.70;99.90;;;;;;5003400;28;20204;-72
2021/04/15 14:11:52;;;;;;;7.27;3.23;;;19.70;99.90;;;;;;4997398;28;20189;-72
2021/04/15 14:14:35;;;;;;;4.70;3.33;;;19.60;99.90;;;;;;4983915;28;20192;-72
2021/04/15 14:17:03;;;;;;;5.20;3.50;;;19.60;99.90;;;;;;5003926;28;20299;-72
2021/04/15 14:19:39;;;;;;;6.63;3.57;;;19.50;99.90;;;;;;4983756;28;20186;-72
2021/04/15 14:22:16;;;;;;;6.57;3.33;;;19.50;99.90;;;;;;4999270;28;20220;-71
2021/04/15 14:24:45;;;;;;;4.03;3.10;;;19.40;99.90;;;;;;4977961;28;20735;-71
2021/04/15 14:27:21;;;;;;;5.67;3.87;;;19.30;99.90;;;;;;4983849;28;20276;-71
2021/04/15 14:29:49;;;;;;;4.03;3.30;;;19.20;99.90;;;;;;5002277;28;20220;-71